Terminal Aerodrome Forecast
Issued by NWS

Home | Current Version | Previous Version | Text Only | Print | Product List | Glossary Off
Versions: 1 2 3 4 5 6 7 8 9 10 11 12 13 14 15 16 17 18 19 20 21

325
FTUS41 KCLE 271139
TAFFDY
TAF
KFDY 271139Z 2712/2812 22005KT P6SM BKN015
     FM271500 24007KT P6SM BKN025
     FM271700 24008KT P6SM BKN050
     FM272300 VRB03KT P6SM OVC100
     FM280300 08006KT 5SM -RA BR OVC015
     FM280500 04005KT 3SM -RA BR OVC007=

USA.gov is the U.S. government's official web portal to all federal, state and local government web resources and services.